sensor_id;sensor_type;location;lat;lon;timestamp;P1;durP1;ratioP1;P2;durP2;ratioP2
62736;SDS011;48787;46.494;-1.782;2022-09-12T00:00:19;8.18;;;5.40;;
62736;SDS011;48787;46.494;-1.782;2022-09-12T00:02:50;10.88;;;6.20;;
62736;SDS011;48787;46.494;-1.782;2022-09-12T00:05:16;10.20;;;6.00;;
62736;SDS011;48787;46.494;-1.782;2022-09-12T00:07:42;9.57;;;5.43;;
62736;SDS011;48787;46.494;-1.782;2022-09-12T00:10:08;8.88;;;5.15;;
62736;SDS011;48787;46.494;-1.782;2022-09-12T00:12:34;8.32;;;5.47;;
62736;SDS011;48787;46.494;-1.782;2022-09-12T00:15:00;7.45;;;4.90;;
62736;SDS011;48787;46.494;-1.782;2022-09-12T00:17:27;7.95;;;4.90;;
62736;SDS011;48787;46.494;-1.782;2022-09-12T00:19:53;7.03;;;4.68;;
62736;SDS011;48787;46.494;-1.782;2022-09-12T00:22:20;7.40;;;4.80;;
62736;SDS011;48787;46.494;-1.782;2022-09-12T00:24:46;7.85;;;4.75;;
62736;SDS011;48787;46.494;-1.782;2022-09-12T00:27:12;7.63;;;4.72;;
62736;SDS011;48787;46.494;-1.782;2022-09-12T00:29:38;7.68;;;4.63;;
62736;SDS011;48787;46.494;-1.782;2022-09-12T00:32:04;6.30;;;4.00;;
62736;SDS011;48787;46.494;-1.782;2022-09-12T00:34:30;6.50;;;4.10;;
62736;SDS011;48787;46.494;-1.782;2022-09-12T00:36:56;6.13;;;4.20;;
62736;SDS011;48787;46.494;-1.782;2022-09-12T00:39:22;6.63;;;4.15;;
62736;SDS011;48787;46.494;-1.782;2022-09-12T00:41:48;6.00;;;3.75;;
62736;SDS011;48787;46.494;-1.782;2022-09-12T00:46:41;5.10;;;3.53;;
62736;SDS011;48787;46.494;-1.782;2022-09-12T00:49:13;4.10;;;3.10;;
62736;SDS011;48787;46.494;-1.782;2022-09-12T00:51:41;5.32;;;3.50;;
62736;SDS011;48787;46.494;-1.782;2022-09-12T00:54:09;5.63;;;3.80;;
62736;SDS011;48787;46.494;-1.782;2022-09-12T00:56:37;5.30;;;3.67;;
62736;SDS011;48787;46.494;-1.782;2022-09-12T00:59:10;5.68;;;3.10;;
62736;SDS011;48787;46.494;-1.782;2022-09-12T01:01:37;6.20;;;3.60;;
62736;SDS011;48787;46.494;-1.782;2022-09-12T01:04:04;5.53;;;2.92;;
62736;SDS011;48787;46.494;-1.782;2022-09-12T01:06:34;5.15;;;3.10;;
62736;SDS011;48787;46.494;-1.782;2022-09-12T01:09:02;4.40;;;2.65;;
62736;SDS011;48787;46.494;-1.782;2022-09-12T01:11:29;6.15;;;2.80;;
62736;SDS011;48787;46.494;-1.782;2022-09-12T01:13:55;3.33;;;2.53;;
62736;SDS011;48787;46.494;-1.782;2022-09-12T01:16:22;3.97;;;2.80;;
62736;SDS011;48787;46.494;-1.782;2022-09-12T01:21:25;3.25;;;2.45;;
62736;SDS011;48787;46.494;-1.782;2022-09-12T01:31:24;4.78;;;2.50;;
62736;SDS011;48787;46.494;-1.782;2022-09-12T01:38:58;2.15;;;1.95;;
62736;SDS011;48787;46.494;-1.782;2022-09-12T01:41:37;2.95;;;2.05;;
62736;SDS011;48787;46.494;-1.782;2022-09-12T01:44:11;3.10;;;2.20;;
62736;SDS011;48787;46.494;-1.782;2022-09-12T01:46:44;2.50;;;1.77;;
62736;SDS011;48787;46.494;-1.782;2022-09-12T01:49:20;3.38;;;2.08;;
62736;SDS011;48787;46.494;-1.782;2022-09-12T01:52:09;2.88;;;1.73;;
62736;SDS011;48787;46.494;-1.782;2022-09-12T01:54:38;2.88;;;2.00;;
62736;SDS011;48787;46.494;-1.782;2022-09-12T01:57:09;2.35;;;1.70;;
62736;SDS011;48787;46.494;-1.782;2022-09-12T01:59:39;2.28;;;1.90;;
62736;SDS011;48787;46.494;-1.782;2022-09-12T02:07:34;1.98;;;1.67;;
62736;SDS011;48787;46.494;-1.782;2022-09-12T02:10:04;2.15;;;1.63;;
62736;SDS011;48787;46.494;-1.782;2022-09-12T02:12:32;2.45;;;1.67;;
62736;SDS011;48787;46.494;-1.782;2022-09-12T02:15:00;2.17;;;1.88;;
62736;SDS011;48787;46.494;-1.782;2022-09-12T02:17:28;2.42;;;1.75;;
62736;SDS011;48787;46.494;-1.782;2022-09-12T02:19:59;1.63;;;1.52;;
62736;SDS011;48787;46.494;-1.782;2022-09-12T02:22:28;1.52;;;1.42;;
62736;SDS011;48787;46.494;-1.782;2022-09-12T02:24:56;2.20;;;1.40;;
62736;SDS011;48787;46.494;-1.782;2022-09-12T02:27:27;1.30;;;1.20;;
62736;SDS011;48787;46.494;-1.782;2022-09-12T02:29:55;2.00;;;1.50;;
62736;SDS011;48787;46.494;-1.782;2022-09-12T02:32:37;2.00;;;1.40;;
62736;SDS011;48787;46.494;-1.782;2022-09-12T02:35:13;1.48;;;1.13;;
62736;SDS011;48787;46.494;-1.782;2022-09-12T02:40:08;1.70;;;1.30;;
62736;SDS011;48787;46.494;-1.782;2022-09-12T02:42:34;2.33;;;1.30;;
62736;SDS011;48787;46.494;-1.782;2022-09-12T02:45:01;1.83;;;1.30;;
62736;SDS011;48787;46.494;-1.782;2022-09-12T02:50:12;1.35;;;0.90;;
62736;SDS011;48787;46.494;-1.782;2022-09-12T02:52:38;1.15;;;1.00;;
62736;SDS011;48787;46.494;-1.782;2022-09-12T02:55:05;1.45;;;1.05;;
62736;SDS011;48787;46.494;-1.782;2022-09-12T02:57:31;2.03;;;1.20;;
62736;SDS011;48787;46.494;-1.782;2022-09-12T02:59:58;1.10;;;1.00;;
62736;SDS011;48787;46.494;-1.782;2022-09-12T03:02:34;1.33;;;1.10;;
62736;SDS011;48787;46.494;-1.782;2022-09-12T03:07:42;1.20;;;1.00;;
62736;SDS011;48787;46.494;-1.782;2022-09-12T03:22:49;1.20;;;0.85;;
62736;SDS011;48787;46.494;-1.782;2022-09-12T03:25:50;1.42;;;0.90;;
62736;SDS011;48787;46.494;-1.782;2022-09-12T03:28:09;0.80;;;0.80;;
62736;SDS011;48787;46.494;-1.782;2022-09-12T03:30:37;1.20;;;0.98;;
62736;SDS011;48787;46.494;-1.782;2022-09-12T03:33:03;1.80;;;0.70;;
62736;SDS011;48787;46.494;-1.782;2022-09-12T03:35:29;0.80;;;0.77;;
62736;SDS011;48787;46.494;-1.782;2022-09-12T03:37:55;1.23;;;0.80;;
62736;SDS011;48787;46.494;-1.782;2022-09-12T03:40:21;0.80;;;0.77;;
62736;SDS011;48787;46.494;-1.782;2022-09-12T03:42:47;0.82;;;0.82;;
62736;SDS011;48787;46.494;-1.782;2022-09-12T03:45:14;1.48;;;0.80;;
62736;SDS011;48787;46.494;-1.782;2022-09-12T03:47:40;1.33;;;0.70;;
62736;SDS011;48787;46.494;-1.782;2022-09-12T03:50:07;0.88;;;0.88;;
62736;SDS011;48787;46.494;-1.782;2022-09-12T03:52:33;0.63;;;0.63;;
62736;SDS011;48787;46.494;-1.782;2022-09-12T03:54:59;1.40;;;0.80;;
62736;SDS011;48787;46.494;-1.782;2022-09-12T03:57:25;0.75;;;0.70;;
62736;SDS011;48787;46.494;-1.782;2022-09-12T03:59:51;1.13;;;0.70;;
62736;SDS011;48787;46.494;-1.782;2022-09-12T04:02:17;2.25;;;0.65;;
62736;SDS011;48787;46.494;-1.782;2022-09-12T04:04:43;0.60;;;0.60;;
62736;SDS011;48787;46.494;-1.782;2022-09-12T04:07:13;1.00;;;0.90;;
62736;SDS011;48787;46.494;-1.782;2022-09-12T04:09:39;1.02;;;0.90;;
62736;SDS011;48787;46.494;-1.782;2022-09-12T04:12:05;1.05;;;0.80;;
62736;SDS011;48787;46.494;-1.782;2022-09-12T04:14:32;0.70;;;0.63;;
62736;SDS011;48787;46.494;-1.782;2022-09-12T04:16:58;1.90;;;0.68;;
62736;SDS011;48787;46.494;-1.782;2022-09-12T04:19:24;1.05;;;0.73;;
62736;SDS011;48787;46.494;-1.782;2022-09-12T04:21:50;0.63;;;0.60;;
62736;SDS011;48787;46.494;-1.782;2022-09-12T04:24:16;1.42;;;0.60;;
62736;SDS011;48787;46.494;-1.782;2022-09-12T04:26:42;0.60;;;0.60;;
62736;SDS011;48787;46.494;-1.782;2022-09-12T04:29:11;0.55;;;0.55;;
62736;SDS011;48787;46.494;-1.782;2022-09-12T04:31:39;0.57;;;0.50;;
62736;SDS011;48787;46.494;-1.782;2022-09-12T04:34:05;0.60;;;0.60;;
62736;SDS011;48787;46.494;-1.782;2022-09-12T04:36:31;0.93;;;0.57;;
62736;SDS011;48787;46.494;-1.782;2022-09-12T04:38:58;0.88;;;0.60;;
62736;SDS011;48787;46.494;-1.782;2022-09-12T04:41:29;1.83;;;0.60;;
62736;SDS011;48787;46.494;-1.782;2022-09-12T04:43:59;0.55;;;0.55;;
62736;SDS011;48787;46.494;-1.782;2022-09-12T04:46:29;0.70;;;0.70;;
62736;SDS011;48787;46.494;-1.782;2022-09-12T04:48:55;1.08;;;0.60;;
62736;SDS011;48787;46.494;-1.782;2022-09-12T04:51:23;0.50;;;0.50;;
62736;SDS011;48787;46.494;-1.782;2022-09-12T04:53:52;0.68;;;0.52;;
62736;SDS011;48787;46.494;-1.782;2022-09-12T04:56:18;0.88;;;0.60;;
62736;SDS011;48787;46.494;-1.782;2022-09-12T04:58:45;0.40;;;0.40;;
62736;SDS011;48787;46.494;-1.782;2022-09-12T05:01:12;1.10;;;0.50;;
62736;SDS011;48787;46.494;-1.782;2022-09-12T05:03:39;0.93;;;0.60;;
62736;SDS011;48787;46.494;-1.782;2022-09-12T05:06:08;1.45;;;0.63;;
62736;SDS011;48787;46.494;-1.782;2022-09-12T05:08:34;0.52;;;0.43;;
62736;SDS011;48787;46.494;-1.782;2022-09-12T05:11:01;0.40;;;0.40;;
62736;SDS011;48787;46.494;-1.782;2022-09-12T05:13:28;0.77;;;0.40;;
62736;SDS011;48787;46.494;-1.782;2022-09-12T05:15:55;1.15;;;0.40;;
62736;SDS011;48787;46.494;-1.782;2022-09-12T05:18:21;0.73;;;0.57;;
62736;SDS011;48787;46.494;-1.782;2022-09-12T05:20:47;0.35;;;0.35;;
62736;SDS011;48787;46.494;-1.782;2022-09-12T05:23:13;0.80;;;0.60;;
62736;SDS011;48787;46.494;-1.782;2022-09-12T05:25:44;0.85;;;0.45;;
62736;SDS011;48787;46.494;-1.782;2022-09-12T05:28:12;0.43;;;0.43;;
62736;SDS011;48787;46.494;-1.782;2022-09-12T05:30:38;0.40;;;0.40;;
62736;SDS011;48787;46.494;-1.782;2022-09-12T05:33:04;3.97;;;0.70;;
62736;SDS011;48787;46.494;-1.782;2022-09-12T05:35:30;0.88;;;0.50;;
62736;SDS011;48787;46.494;-1.782;2022-09-12T05:37:57;0.75;;;0.60;;
62736;SDS011;48787;46.494;-1.782;2022-09-12T05:40:23;4.63;;;0.70;;
62736;SDS011;48787;46.494;-1.782;2022-09-12T05:42:49;2.25;;;0.60;;
62736;SDS011;48787;46.494;-1.782;2022-09-12T05:45:15;0.80;;;0.50;;
62736;SDS011;48787;46.494;-1.782;2022-09-12T05:47:41;1.65;;;0.57;;
62736;SDS011;48787;46.494;-1.782;2022-09-12T05:50:08;1.67;;;0.40;;
62736;SDS011;48787;46.494;-1.782;2022-09-12T05:52:38;1.15;;;0.52;;
62736;SDS011;48787;46.494;-1.782;2022-09-12T05:55:04;1.27;;;0.60;;
62736;SDS011;48787;46.494;-1.782;2022-09-12T05:57:31;1.50;;;0.70;;
62736;SDS011;48787;46.494;-1.782;2022-09-12T05:59:57;0.75;;;0.70;;
62736;SDS011;48787;46.494;-1.782;2022-09-12T06:02:23;0.95;;;0.60;;
62736;SDS011;48787;46.494;-1.782;2022-09-12T06:04:50;0.32;;;0.32;;
62736;SDS011;48787;46.494;-1.782;2022-09-12T06:07:16;0.57;;;0.50;;
62736;SDS011;48787;46.494;-1.782;2022-09-12T06:09:42;1.00;;;0.60;;
62736;SDS011;48787;46.494;-1.782;2022-09-12T06:12:08;0.50;;;0.50;;
62736;SDS011;48787;46.494;-1.782;2022-09-12T06:14:34;1.60;;;0.60;;
62736;SDS011;48787;46.494;-1.782;2022-09-12T06:17:00;0.75;;;0.60;;
62736;SDS011;48787;46.494;-1.782;2022-09-12T06:19:26;0.82;;;0.50;;
62736;SDS011;48787;46.494;-1.782;2022-09-12T06:21:52;1.00;;;0.65;;
62736;SDS011;48787;46.494;-1.782;2022-09-12T06:24:19;1.15;;;0.50;;
62736;SDS011;48787;46.494;-1.782;2022-09-12T06:26:46;0.77;;;0.52;;
62736;SDS011;48787;46.494;-1.782;2022-09-12T06:29:12;0.50;;;0.50;;
62736;SDS011;48787;46.494;-1.782;2022-09-12T06:31:39;13.02;;;1.23;;
62736;SDS011;48787;46.494;-1.782;2022-09-12T06:34:06;4.93;;;0.80;;
62736;SDS011;48787;46.494;-1.782;2022-09-12T06:36:37;2.20;;;0.55;;
62736;SDS011;48787;46.494;-1.782;2022-09-12T06:39:05;1.85;;;0.43;;
62736;SDS011;48787;46.494;-1.782;2022-09-12T06:41:31;3.15;;;0.65;;
62736;SDS011;48787;46.494;-1.782;2022-09-12T06:43:58;1.77;;;0.50;;
62736;SDS011;48787;46.494;-1.782;2022-09-12T06:46:25;1.38;;;0.57;;
62736;SDS011;48787;46.494;-1.782;2022-09-12T06:48:51;3.08;;;0.50;;
62736;SDS011;48787;46.494;-1.782;2022-09-12T06:51:18;0.63;;;0.50;;
62736;SDS011;48787;46.494;-1.782;2022-09-12T06:53:44;3.17;;;0.50;;
62736;SDS011;48787;46.494;-1.782;2022-09-12T06:56:12;2.72;;;0.40;;
62736;SDS011;48787;46.494;-1.782;2022-09-12T06:58:39;5.30;;;0.50;;
62736;SDS011;48787;46.494;-1.782;2022-09-12T07:01:09;0.52;;;0.30;;
62736;SDS011;48787;46.494;-1.782;2022-09-12T07:03:36;0.75;;;0.38;;
62736;SDS011;48787;46.494;-1.782;2022-09-12T07:06:09;1.75;;;0.30;;
62736;SDS011;48787;46.494;-1.782;2022-09-12T07:08:35;1.20;;;0.43;;
62736;SDS011;48787;46.494;-1.782;2022-09-12T07:11:08;2.22;;;0.50;;
62736;SDS011;48787;46.494;-1.782;2022-09-12T07:13:35;0.70;;;0.40;;
62736;SDS011;48787;46.494;-1.782;2022-09-12T07:16:02;2.47;;;0.60;;
62736;SDS011;48787;46.494;-1.782;2022-09-12T07:18:28;1.42;;;0.40;;
62736;SDS011;48787;46.494;-1.782;2022-09-12T07:20:54;2.83;;;0.50;;
62736;SDS011;48787;46.494;-1.782;2022-09-12T07:23:20;1.45;;;0.47;;
62736;SDS011;48787;46.494;-1.782;2022-09-12T07:25:53;2.65;;;0.75;;
62736;SDS011;48787;46.494;-1.782;2022-09-12T07:28:20;2.45;;;0.55;;
62736;SDS011;48787;46.494;-1.782;2022-09-12T07:30:46;2.60;;;0.73;;
62736;SDS011;48787;46.494;-1.782;2022-09-12T07:33:12;3.17;;;0.68;;
62736;SDS011;48787;46.494;-1.782;2022-09-12T07:35:38;3.58;;;0.45;;
62736;SDS011;48787;46.494;-1.782;2022-09-12T07:38:04;2.05;;;0.47;;
62736;SDS011;48787;46.494;-1.782;2022-09-12T07:40:30;1.55;;;0.50;;
62736;SDS011;48787;46.494;-1.782;2022-09-12T07:42:56;0.68;;;0.43;;
62736;SDS011;48787;46.494;-1.782;2022-09-12T07:45:22;1.75;;;0.55;;
62736;SDS011;48787;46.494;-1.782;2022-09-12T07:47:52;1.27;;;0.52;;
62736;SDS011;48787;46.494;-1.782;2022-09-12T07:50:18;2.50;;;0.60;;
62736;SDS011;48787;46.494;-1.782;2022-09-12T07:52:44;1.20;;;0.50;;
62736;SDS011;48787;46.494;-1.782;2022-09-12T07:55:10;1.23;;;0.50;;
62736;SDS011;48787;46.494;-1.782;2022-09-12T07:57:36;1.10;;;0.47;;
62736;SDS011;48787;46.494;-1.782;2022-09-12T08:00:03;3.40;;;0.70;;
62736;SDS011;48787;46.494;-1.782;2022-09-12T08:02:29;1.85;;;0.65;;
62736;SDS011;48787;46.494;-1.782;2022-09-12T08:04:55;0.85;;;0.70;;
62736;SDS011;48787;46.494;-1.782;2022-09-12T08:07:21;1.65;;;0.50;;
62736;SDS011;48787;46.494;-1.782;2022-09-12T08:09:48;2.40;;;0.60;;
62736;SDS011;48787;46.494;-1.782;2022-09-12T08:12:14;2.50;;;0.68;;
62736;SDS011;48787;46.494;-1.782;2022-09-12T08:14:41;0.60;;;0.50;;
62736;SDS011;48787;46.494;-1.782;2022-09-12T08:17:07;2.63;;;0.60;;
62736;SDS011;48787;46.494;-1.782;2022-09-12T08:19:34;2.53;;;0.68;;
62736;SDS011;48787;46.494;-1.782;2022-09-12T08:22:00;0.88;;;0.50;;
62736;SDS011;48787;46.494;-1.782;2022-09-12T08:24:27;1.13;;;0.52;;
62736;SDS011;48787;46.494;-1.782;2022-09-12T08:26:53;0.70;;;0.68;;
62736;SDS011;48787;46.494;-1.782;2022-09-12T08:29:19;1.13;;;0.50;;
62736;SDS011;48787;46.494;-1.782;2022-09-12T08:31:45;1.40;;;0.60;;
62736;SDS011;48787;46.494;-1.782;2022-09-12T08:34:11;1.75;;;0.63;;
62736;SDS011;48787;46.494;-1.782;2022-09-12T08:36:37;2.25;;;0.68;;
62736;SDS011;48787;46.494;-1.782;2022-09-12T08:39:05;2.17;;;0.68;;
62736;SDS011;48787;46.494;-1.782;2022-09-12T08:41:45;1.55;;;0.68;;
62736;SDS011;48787;46.494;-1.782;2022-09-12T08:49:11;1.17;;;0.60;;
62736;SDS011;48787;46.494;-1.782;2022-09-12T08:51:38;3.83;;;0.80;;
62736;SDS011;48787;46.494;-1.782;2022-09-12T08:54:04;1.55;;;0.77;;
62736;SDS011;48787;46.494;-1.782;2022-09-12T08:56:35;1.40;;;0.47;;
62736;SDS011;48787;46.494;-1.782;2022-09-12T08:59:02;2.42;;;0.63;;
62736;SDS011;48787;46.494;-1.782;2022-09-12T09:01:33;1.10;;;0.50;;
62736;SDS011;48787;46.494;-1.782;2022-09-12T09:04:13;5.70;;;0.70;;
62736;SDS011;48787;46.494;-1.782;2022-09-12T09:06:49;0.70;;;0.57;;
62736;SDS011;48787;46.494;-1.782;2022-09-12T09:12:06;4.03;;;0.70;;
62736;SDS011;48787;46.494;-1.782;2022-09-12T09:14:41;0.95;;;0.60;;
62736;SDS011;48787;46.494;-1.782;2022-09-12T09:17:18;1.92;;;0.60;;
62736;SDS011;48787;46.494;-1.782;2022-09-12T09:19:48;2.67;;;0.80;;
62736;SDS011;48787;46.494;-1.782;2022-09-12T09:22:20;1.45;;;0.60;;
62736;SDS011;48787;46.494;-1.782;2022-09-12T09:24:52;2.95;;;0.60;;
62736;SDS011;48787;46.494;-1.782;2022-09-12T09:27:30;3.13;;;0.70;;
62736;SDS011;48787;46.494;-1.782;2022-09-12T09:29:58;0.70;;;0.40;;
62736;SDS011;48787;46.494;-1.782;2022-09-12T09:32:25;6.25;;;1.02;;
62736;SDS011;48787;46.494;-1.782;2022-09-12T09:34:52;4.40;;;0.90;;
62736;SDS011;48787;46.494;-1.782;2022-09-12T09:37:31;1.45;;;1.02;;
62736;SDS011;48787;46.494;-1.782;2022-09-12T09:42:59;1.73;;;0.80;;
62736;SDS011;48787;46.494;-1.782;2022-09-12T09:45:28;4.10;;;0.60;;
62736;SDS011;48787;46.494;-1.782;2022-09-12T09:47:59;0.85;;;0.70;;
62736;SDS011;48787;46.494;-1.782;2022-09-12T09:50:26;3.00;;;1.00;;
62736;SDS011;48787;46.494;-1.782;2022-09-12T09:52:52;1.15;;;0.80;;
62736;SDS011;48787;46.494;-1.782;2022-09-12T09:55:19;2.97;;;0.85;;
62736;SDS011;48787;46.494;-1.782;2022-09-12T09:57:48;0.68;;;0.60;;
62736;SDS011;48787;46.494;-1.782;2022-09-12T10:00:26;2.40;;;0.70;;
62736;SDS011;48787;46.494;-1.782;2022-09-12T10:03:03;5.57;;;0.90;;
62736;SDS011;48787;46.494;-1.782;2022-09-12T10:05:30;6.03;;;0.98;;
62736;SDS011;48787;46.494;-1.782;2022-09-12T10:07:57;6.93;;;0.95;;
62736;SDS011;48787;46.494;-1.782;2022-09-12T10:10:24;1.88;;;1.00;;
62736;SDS011;48787;46.494;-1.782;2022-09-12T10:12:50;6.40;;;1.10;;
62736;SDS011;48787;46.494;-1.782;2022-09-12T10:15:20;6.25;;;2.00;;
62736;SDS011;48787;46.494;-1.782;2022-09-12T10:17:48;12.02;;;3.20;;
62736;SDS011;48787;46.494;-1.782;2022-09-12T10:22:59;21.10;;;6.47;;
62736;SDS011;48787;46.494;-1.782;2022-09-12T10:25:25;15.98;;;5.88;;
62736;SDS011;48787;46.494;-1.782;2022-09-12T10:27:53;18.88;;;6.10;;
62736;SDS011;48787;46.494;-1.782;2022-09-12T10:30:20;20.88;;;6.28;;
62736;SDS011;48787;46.494;-1.782;2022-09-12T10:32:49;21.48;;;6.40;;
62736;SDS011;48787;46.494;-1.782;2022-09-12T10:35:23;13.95;;;5.35;;
62736;SDS011;48787;46.494;-1.782;2022-09-12T10:40:23;14.77;;;5.72;;
62736;SDS011;48787;46.494;-1.782;2022-09-12T10:42:50;13.07;;;4.80;;
62736;SDS011;48787;46.494;-1.782;2022-09-12T10:47:53;16.35;;;5.50;;
62736;SDS011;48787;46.494;-1.782;2022-09-12T10:50:30;14.05;;;4.82;;
62736;SDS011;48787;46.494;-1.782;2022-09-12T10:53:42;15.70;;;4.85;;
62736;SDS011;48787;46.494;-1.782;2022-09-12T10:55:49;14.80;;;4.75;;
62736;SDS011;48787;46.494;-1.782;2022-09-12T11:00:54;14.20;;;4.82;;
62736;SDS011;48787;46.494;-1.782;2022-09-12T11:06:16;12.68;;;4.13;;
62736;SDS011;48787;46.494;-1.782;2022-09-12T11:11:38;10.40;;;4.00;;
62736;SDS011;48787;46.494;-1.782;2022-09-12T11:14:27;11.93;;;3.92;;
62736;SDS011;48787;46.494;-1.782;2022-09-12T11:20:08;10.55;;;3.92;;
62736;SDS011;48787;46.494;-1.782;2022-09-12T11:25:11;12.63;;;3.72;;
62736;SDS011;48787;46.494;-1.782;2022-09-12T11:30:07;10.38;;;3.67;;
62736;SDS011;48787;46.494;-1.782;2022-09-12T11:43:32;9.85;;;3.20;;
62736;SDS011;48787;46.494;-1.782;2022-09-12T11:46:01;13.35;;;3.00;;
62736;SDS011;48787;46.494;-1.782;2022-09-12T11:48:39;9.95;;;3.28;;
62736;SDS011;48787;46.494;-1.782;2022-09-12T11:51:14;10.13;;;2.92;;
62736;SDS011;48787;46.494;-1.782;2022-09-12T11:53:42;9.18;;;2.92;;
62736;SDS011;48787;46.494;-1.782;2022-09-12T11:56:18;9.88;;;2.90;;
62736;SDS011;48787;46.494;-1.782;2022-09-12T11:58:52;5.82;;;2.50;;
62736;SDS011;48787;46.494;-1.782;2022-09-12T12:01:20;11.33;;;2.50;;
62736;SDS011;48787;46.494;-1.782;2022-09-12T12:03:47;12.13;;;2.28;;
62736;SDS011;48787;46.494;-1.782;2022-09-12T12:06:20;10.55;;;1.80;;
62736;SDS011;48787;46.494;-1.782;2022-09-12T12:08:49;10.80;;;1.50;;
62736;SDS011;48787;46.494;-1.782;2022-09-12T12:11:29;15.55;;;2.75;;
62736;SDS011;48787;46.494;-1.782;2022-09-12T12:13:58;10.35;;;1.80;;
62736;SDS011;48787;46.494;-1.782;2022-09-12T12:16:36;13.68;;;1.73;;
62736;SDS011;48787;46.494;-1.782;2022-09-12T12:19:05;9.85;;;1.80;;
62736;SDS011;48787;46.494;-1.782;2022-09-12T12:29:48;20.23;;;2.92;;
62736;SDS011;48787;46.494;-1.782;2022-09-12T12:34:47;22.52;;;2.67;;
62736;SDS011;48787;46.494;-1.782;2022-09-12T12:47:31;20.45;;;2.25;;
62736;SDS011;48787;46.494;-1.782;2022-09-12T12:50:03;14.32;;;2.53;;
62736;SDS011;48787;46.494;-1.782;2022-09-12T12:52:31;23.70;;;2.30;;
62736;SDS011;48787;46.494;-1.782;2022-09-12T12:55:01;25.00;;;3.13;;
62736;SDS011;48787;46.494;-1.782;2022-09-12T12:57:33;16.63;;;2.00;;
62736;SDS011;48787;46.494;-1.782;2022-09-12T13:02:37;20.85;;;3.03;;
62736;SDS011;48787;46.494;-1.782;2022-09-12T13:05:12;22.42;;;2.50;;
62736;SDS011;48787;46.494;-1.782;2022-09-12T13:07:41;19.08;;;2.72;;
62736;SDS011;48787;46.494;-1.782;2022-09-12T13:10:18;24.48;;;3.47;;
62736;SDS011;48787;46.494;-1.782;2022-09-12T13:12:47;28.38;;;3.10;;
62736;SDS011;48787;46.494;-1.782;2022-09-12T13:18:12;25.60;;;3.00;;
62736;SDS011;48787;46.494;-1.782;2022-09-12T13:20:51;18.75;;;3.58;;
62736;SDS011;48787;46.494;-1.782;2022-09-12T13:23:25;19.83;;;2.40;;
62736;SDS011;48787;46.494;-1.782;2022-09-12T13:25:53;31.08;;;3.47;;
62736;SDS011;48787;46.494;-1.782;2022-09-12T13:28:19;33.35;;;3.10;;
62736;SDS011;48787;46.494;-1.782;2022-09-12T13:36:36;24.05;;;3.20;;
62736;SDS011;48787;46.494;-1.782;2022-09-12T13:43:56;23.50;;;3.30;;
62736;SDS011;48787;46.494;-1.782;2022-09-12T13:46:26;27.30;;;3.38;;
62736;SDS011;48787;46.494;-1.782;2022-09-12T13:48:54;22.17;;;2.70;;
62736;SDS011;48787;46.494;-1.782;2022-09-12T13:51:24;24.95;;;2.92;;
62736;SDS011;48787;46.494;-1.782;2022-09-12T13:53:52;31.98;;;3.88;;
62736;SDS011;48787;46.494;-1.782;2022-09-12T13:56:20;30.90;;;2.80;;
62736;SDS011;48787;46.494;-1.782;2022-09-12T13:58:50;21.42;;;2.40;;
62736;SDS011;48787;46.494;-1.782;2022-09-12T14:01:17;17.05;;;2.50;;
62736;SDS011;48787;46.494;-1.782;2022-09-12T14:06:33;19.20;;;2.50;;
62736;SDS011;48787;46.494;-1.782;2022-09-12T14:09:00;27.05;;;2.97;;
62736;SDS011;48787;46.494;-1.782;2022-09-12T14:11:27;27.58;;;2.58;;
62736;SDS011;48787;46.494;-1.782;2022-09-12T14:13:54;24.65;;;2.65;;
62736;SDS011;48787;46.494;-1.782;2022-09-12T14:16:21;26.00;;;3.22;;
62736;SDS011;48787;46.494;-1.782;2022-09-12T14:18:48;26.85;;;2.90;;
62736;SDS011;48787;46.494;-1.782;2022-09-12T14:23:44;20.88;;;3.28;;
62736;SDS011;48787;46.494;-1.782;2022-09-12T14:26:12;48.33;;;5.00;;
62736;SDS011;48787;46.494;-1.782;2022-09-12T14:28:40;40.80;;;3.95;;
62736;SDS011;48787;46.494;-1.782;2022-09-12T14:36:19;38.78;;;4.63;;
62736;SDS011;48787;46.494;-1.782;2022-09-12T14:38:48;33.70;;;4.32;;
62736;SDS011;48787;46.494;-1.782;2022-09-12T14:41:20;19.13;;;3.10;;
62736;SDS011;48787;46.494;-1.782;2022-09-12T14:43:49;26.13;;;3.90;;
62736;SDS011;48787;46.494;-1.782;2022-09-12T14:46:21;17.08;;;2.88;;
62736;SDS011;48787;46.494;-1.782;2022-09-12T14:48:49;24.35;;;4.05;;
62736;SDS011;48787;46.494;-1.782;2022-09-12T14:51:20;15.27;;;2.53;;
62736;SDS011;48787;46.494;-1.782;2022-09-12T14:53:48;24.27;;;3.28;;
62736;SDS011;48787;46.494;-1.782;2022-09-12T14:56:14;23.17;;;4.10;;
62736;SDS011;48787;46.494;-1.782;2022-09-12T14:58:40;34.13;;;4.07;;
62736;SDS011;48787;46.494;-1.782;2022-09-12T15:08:50;50.10;;;5.18;;
62736;SDS011;48787;46.494;-1.782;2022-09-12T15:11:17;35.83;;;3.88;;
62736;SDS011;48787;46.494;-1.782;2022-09-12T15:13:43;33.05;;;3.83;;
62736;SDS011;48787;46.494;-1.782;2022-09-12T15:16:09;27.23;;;3.70;;
62736;SDS011;48787;46.494;-1.782;2022-09-12T15:18:36;36.40;;;3.70;;
62736;SDS011;48787;46.494;-1.782;2022-09-12T15:21:06;42.63;;;4.50;;
62736;SDS011;48787;46.494;-1.782;2022-09-12T15:23:36;38.10;;;4.65;;
62736;SDS011;48787;46.494;-1.782;2022-09-12T15:26:05;36.55;;;5.60;;
62736;SDS011;48787;46.494;-1.782;2022-09-12T15:28:31;41.85;;;5.20;;
62736;SDS011;48787;46.494;-1.782;2022-09-12T15:31:00;32.00;;;4.43;;
62736;SDS011;48787;46.494;-1.782;2022-09-12T15:33:28;38.75;;;4.47;;
62736;SDS011;48787;46.494;-1.782;2022-09-12T15:35:54;33.00;;;4.45;;
62736;SDS011;48787;46.494;-1.782;2022-09-12T15:38:20;35.05;;;4.43;;
62736;SDS011;48787;46.494;-1.782;2022-09-12T15:40:50;34.35;;;4.30;;
62736;SDS011;48787;46.494;-1.782;2022-09-12T15:43:17;26.15;;;5.00;;
62736;SDS011;48787;46.494;-1.782;2022-09-12T15:45:44;25.88;;;3.90;;
62736;SDS011;48787;46.494;-1.782;2022-09-12T15:48:11;23.65;;;3.80;;
62736;SDS011;48787;46.494;-1.782;2022-09-12T15:50:38;21.83;;;3.97;;
62736;SDS011;48787;46.494;-1.782;2022-09-12T15:53:04;26.05;;;4.05;;
62736;SDS011;48787;46.494;-1.782;2022-09-12T15:55:30;23.27;;;5.38;;
62736;SDS011;48787;46.494;-1.782;2022-09-12T15:57:57;18.80;;;3.38;;
62736;SDS011;48787;46.494;-1.782;2022-09-12T16:00:24;21.92;;;4.15;;
62736;SDS011;48787;46.494;-1.782;2022-09-12T16:02:50;18.63;;;3.30;;
62736;SDS011;48787;46.494;-1.782;2022-09-12T16:05:18;22.42;;;3.92;;
62736;SDS011;48787;46.494;-1.782;2022-09-12T16:07:44;21.60;;;3.92;;
62736;SDS011;48787;46.494;-1.782;2022-09-12T16:10:14;26.77;;;4.63;;
62736;SDS011;48787;46.494;-1.782;2022-09-12T16:12:41;33.25;;;5.40;;
62736;SDS011;48787;46.494;-1.782;2022-09-12T16:15:09;37.55;;;5.05;;
62736;SDS011;48787;46.494;-1.782;2022-09-12T16:17:36;30.25;;;5.45;;
62736;SDS011;48787;46.494;-1.782;2022-09-12T16:20:02;28.40;;;4.35;;
62736;SDS011;48787;46.494;-1.782;2022-09-12T16:22:28;24.15;;;4.28;;
62736;SDS011;48787;46.494;-1.782;2022-09-12T16:24:54;22.98;;;4.85;;
62736;SDS011;48787;46.494;-1.782;2022-09-12T16:27:20;27.30;;;3.70;;
62736;SDS011;48787;46.494;-1.782;2022-09-12T16:29:46;31.75;;;5.05;;
62736;SDS011;48787;46.494;-1.782;2022-09-12T16:32:13;30.83;;;4.20;;
62736;SDS011;48787;46.494;-1.782;2022-09-12T16:34:39;33.08;;;4.90;;
62736;SDS011;48787;46.494;-1.782;2022-09-12T16:37:05;25.05;;;4.38;;
62736;SDS011;48787;46.494;-1.782;2022-09-12T16:39:31;26.33;;;4.45;;
62736;SDS011;48787;46.494;-1.782;2022-09-12T16:41:58;30.70;;;5.30;;
62736;SDS011;48787;46.494;-1.782;2022-09-12T16:44:24;26.65;;;5.60;;
62736;SDS011;48787;46.494;-1.782;2022-09-12T16:46:50;35.90;;;4.88;;
62736;SDS011;48787;46.494;-1.782;2022-09-12T16:49:16;25.80;;;3.78;;
62736;SDS011;48787;46.494;-1.782;2022-09-12T16:51:42;25.02;;;3.95;;
62736;SDS011;48787;46.494;-1.782;2022-09-12T16:54:12;31.70;;;5.30;;
62736;SDS011;48787;46.494;-1.782;2022-09-12T16:56:38;32.28;;;5.43;;
62736;SDS011;48787;46.494;-1.782;2022-09-12T16:59:05;30.55;;;4.93;;
62736;SDS011;48787;46.494;-1.782;2022-09-12T17:01:31;29.88;;;5.28;;